sensor_id;sensor_type;location;lat;lon;timestamp;P1;durP1;ratioP1;P2;durP2;ratioP2
1509;SDS011;746;48.688;9.428;2023-03-12T00:01:31;13.00;;;9.30;;
1509;SDS011;746;48.688;9.428;2023-03-12T00:03:53;12.40;;;9.03;;
1509;SDS011;746;48.688;9.428;2023-03-12T00:06:15;12.57;;;9.13;;
1509;SDS011;746;48.688;9.428;2023-03-12T00:08:37;13.67;;;9.27;;
1509;SDS011;746;48.688;9.428;2023-03-12T00:11:03;16.03;;;9.30;;
1509;SDS011;746;48.688;9.428;2023-03-12T00:13:26;9.80;;;8.60;;
1509;SDS011;746;48.688;9.428;2023-03-12T00:15:47;13.33;;;8.57;;
1509;SDS011;746;48.688;9.428;2023-03-12T00:18:09;12.23;;;9.93;;
1509;SDS011;746;48.688;9.428;2023-03-12T00:20:30;13.07;;;9.33;;
1509;SDS011;746;48.688;9.428;2023-03-12T00:22:52;14.10;;;9.53;;
1509;SDS011;746;48.688;9.428;2023-03-12T00:25:14;13.97;;;9.40;;
1509;SDS011;746;48.688;9.428;2023-03-12T00:27:37;14.43;;;9.10;;
1509;SDS011;746;48.688;9.428;2023-03-12T00:29:59;11.93;;;9.20;;
1509;SDS011;746;48.688;9.428;2023-03-12T00:32:21;13.33;;;9.37;;
1509;SDS011;746;48.688;9.428;2023-03-12T00:34:43;11.20;;;9.30;;
1509;SDS011;746;48.688;9.428;2023-03-12T00:37:05;13.87;;;9.77;;
1509;SDS011;746;48.688;9.428;2023-03-12T00:39:26;11.43;;;9.30;;
1509;SDS011;746;48.688;9.428;2023-03-12T00:41:48;12.83;;;9.40;;
1509;SDS011;746;48.688;9.428;2023-03-12T00:44:11;12.60;;;9.03;;
1509;SDS011;746;48.688;9.428;2023-03-12T00:46:33;12.60;;;9.70;;
1509;SDS011;746;48.688;9.428;2023-03-12T00:48:55;11.37;;;8.67;;
1509;SDS011;746;48.688;9.428;2023-03-12T00:51:16;10.57;;;8.53;;
1509;SDS011;746;48.688;9.428;2023-03-12T00:53:38;12.40;;;8.23;;
1509;SDS011;746;48.688;9.428;2023-03-12T00:55:59;11.13;;;8.93;;
1509;SDS011;746;48.688;9.428;2023-03-12T00:58:21;12.40;;;8.87;;
1509;SDS011;746;48.688;9.428;2023-03-12T01:00:43;10.63;;;8.53;;
1509;SDS011;746;48.688;9.428;2023-03-12T01:03:06;13.13;;;10.00;;
1509;SDS011;746;48.688;9.428;2023-03-12T01:05:27;17.77;;;10.07;;
1509;SDS011;746;48.688;9.428;2023-03-12T01:07:48;13.73;;;9.73;;
1509;SDS011;746;48.688;9.428;2023-03-12T01:10:10;12.37;;;9.77;;
1509;SDS011;746;48.688;9.428;2023-03-12T01:12:33;12.47;;;9.80;;
1509;SDS011;746;48.688;9.428;2023-03-12T01:14:55;13.43;;;10.30;;
1509;SDS011;746;48.688;9.428;2023-03-12T01:17:17;13.27;;;9.30;;
1509;SDS011;746;48.688;9.428;2023-03-12T01:19:40;9.83;;;8.83;;
1509;SDS011;746;48.688;9.428;2023-03-12T01:22:01;13.80;;;10.13;;
1509;SDS011;746;48.688;9.428;2023-03-12T01:24:23;14.70;;;10.00;;
1509;SDS011;746;48.688;9.428;2023-03-12T01:26:45;15.83;;;9.30;;
1509;SDS011;746;48.688;9.428;2023-03-12T01:29:07;13.77;;;9.60;;
1509;SDS011;746;48.688;9.428;2023-03-12T01:31:28;11.20;;;9.70;;
1509;SDS011;746;48.688;9.428;2023-03-12T01:33:51;13.33;;;9.80;;
1509;SDS011;746;48.688;9.428;2023-03-12T01:36:14;14.87;;;9.60;;
1509;SDS011;746;48.688;9.428;2023-03-12T01:38:36;10.70;;;9.37;;
1509;SDS011;746;48.688;9.428;2023-03-12T01:40:58;13.30;;;10.17;;
1509;SDS011;746;48.688;9.428;2023-03-12T01:43:24;13.00;;;10.20;;
1509;SDS011;746;48.688;9.428;2023-03-12T01:45:57;12.70;;;10.20;;
1509;SDS011;746;48.688;9.428;2023-03-12T01:48:20;13.73;;;10.37;;
1509;SDS011;746;48.688;9.428;2023-03-12T01:50:43;13.73;;;9.23;;
1509;SDS011;746;48.688;9.428;2023-03-12T01:53:04;13.63;;;10.23;;
1509;SDS011;746;48.688;9.428;2023-03-12T01:55:26;13.00;;;10.03;;
1509;SDS011;746;48.688;9.428;2023-03-12T01:57:47;12.57;;;10.00;;
1509;SDS011;746;48.688;9.428;2023-03-12T02:00:11;12.47;;;9.87;;
1509;SDS011;746;48.688;9.428;2023-03-12T02:02:33;12.87;;;10.03;;
1509;SDS011;746;48.688;9.428;2023-03-12T02:04:58;11.83;;;10.10;;
1509;SDS011;746;48.688;9.428;2023-03-12T02:07:25;12.90;;;9.60;;
1509;SDS011;746;48.688;9.428;2023-03-12T02:09:47;12.73;;;10.57;;
1509;SDS011;746;48.688;9.428;2023-03-12T02:12:09;13.50;;;9.83;;
1509;SDS011;746;48.688;9.428;2023-03-12T02:14:31;11.63;;;9.83;;
1509;SDS011;746;48.688;9.428;2023-03-12T02:16:52;12.63;;;9.43;;
1509;SDS011;746;48.688;9.428;2023-03-12T02:19:16;11.03;;;9.50;;
1509;SDS011;746;48.688;9.428;2023-03-12T02:21:39;12.07;;;10.27;;
1509;SDS011;746;48.688;9.428;2023-03-12T02:24:04;13.00;;;9.73;;
1509;SDS011;746;48.688;9.428;2023-03-12T02:26:29;13.63;;;9.37;;
1509;SDS011;746;48.688;9.428;2023-03-12T02:28:50;10.57;;;9.27;;
1509;SDS011;746;48.688;9.428;2023-03-12T02:31:13;11.17;;;9.60;;
1509;SDS011;746;48.688;9.428;2023-03-12T02:33:35;13.37;;;9.43;;
1509;SDS011;746;48.688;9.428;2023-03-12T02:35:57;12.10;;;9.43;;
1509;SDS011;746;48.688;9.428;2023-03-12T02:41:02;12.17;;;9.67;;
1509;SDS011;746;48.688;9.428;2023-03-12T02:43:26;10.23;;;9.23;;
1509;SDS011;746;48.688;9.428;2023-03-12T02:45:48;14.17;;;9.63;;
1509;SDS011;746;48.688;9.428;2023-03-12T02:48:10;12.17;;;9.03;;
1509;SDS011;746;48.688;9.428;2023-03-12T02:50:31;12.70;;;9.10;;
1509;SDS011;746;48.688;9.428;2023-03-12T02:52:52;12.37;;;9.30;;
1509;SDS011;746;48.688;9.428;2023-03-12T02:55:14;12.43;;;9.20;;
1509;SDS011;746;48.688;9.428;2023-03-12T02:57:35;10.10;;;9.10;;
1509;SDS011;746;48.688;9.428;2023-03-12T02:59:58;10.73;;;9.57;;
1509;SDS011;746;48.688;9.428;2023-03-12T03:02:20;11.97;;;9.37;;
1509;SDS011;746;48.688;9.428;2023-03-12T03:04:41;11.80;;;9.43;;
1509;SDS011;746;48.688;9.428;2023-03-12T03:07:03;12.00;;;9.13;;
1509;SDS011;746;48.688;9.428;2023-03-12T03:09:24;10.67;;;9.00;;
1509;SDS011;746;48.688;9.428;2023-03-12T03:11:46;10.00;;;8.87;;
1509;SDS011;746;48.688;9.428;2023-03-12T03:14:07;10.93;;;9.37;;
1509;SDS011;746;48.688;9.428;2023-03-12T03:16:31;13.57;;;9.77;;
1509;SDS011;746;48.688;9.428;2023-03-12T03:18:53;10.20;;;9.13;;
1509;SDS011;746;48.688;9.428;2023-03-12T03:21:15;10.47;;;9.00;;
1509;SDS011;746;48.688;9.428;2023-03-12T03:23:37;10.10;;;8.97;;
1509;SDS011;746;48.688;9.428;2023-03-12T03:25:58;9.63;;;8.63;;
1509;SDS011;746;48.688;9.428;2023-03-12T03:28:20;11.50;;;8.80;;
1509;SDS011;746;48.688;9.428;2023-03-12T03:30:42;10.90;;;9.47;;
1509;SDS011;746;48.688;9.428;2023-03-12T03:33:04;11.00;;;9.23;;
1509;SDS011;746;48.688;9.428;2023-03-12T03:35:27;12.50;;;9.07;;
1509;SDS011;746;48.688;9.428;2023-03-12T03:37:48;10.77;;;9.37;;
1509;SDS011;746;48.688;9.428;2023-03-12T03:40:10;11.60;;;9.50;;
1509;SDS011;746;48.688;9.428;2023-03-12T03:42:32;12.50;;;9.77;;
1509;SDS011;746;48.688;9.428;2023-03-12T03:44:53;10.40;;;9.00;;
1509;SDS011;746;48.688;9.428;2023-03-12T03:47:14;11.63;;;9.50;;
1509;SDS011;746;48.688;9.428;2023-03-12T03:49:37;10.93;;;9.00;;
1509;SDS011;746;48.688;9.428;2023-03-12T03:51:59;10.37;;;9.00;;
1509;SDS011;746;48.688;9.428;2023-03-12T03:54:21;11.03;;;8.97;;
1509;SDS011;746;48.688;9.428;2023-03-12T03:56:42;13.00;;;9.30;;
1509;SDS011;746;48.688;9.428;2023-03-12T03:59:05;10.60;;;9.27;;
1509;SDS011;746;48.688;9.428;2023-03-12T04:01:26;13.20;;;9.40;;
1509;SDS011;746;48.688;9.428;2023-03-12T04:03:48;11.10;;;9.10;;
1509;SDS011;746;48.688;9.428;2023-03-12T04:06:11;12.00;;;8.50;;
1509;SDS011;746;48.688;9.428;2023-03-12T04:08:33;13.80;;;9.23;;
1509;SDS011;746;48.688;9.428;2023-03-12T04:10:54;11.13;;;8.87;;
1509;SDS011;746;48.688;9.428;2023-03-12T04:13:16;10.97;;;8.70;;
1509;SDS011;746;48.688;9.428;2023-03-12T04:15:37;10.20;;;8.67;;
1509;SDS011;746;48.688;9.428;2023-03-12T04:17:59;9.17;;;8.27;;
1509;SDS011;746;48.688;9.428;2023-03-12T04:20:22;10.30;;;9.13;;
1509;SDS011;746;48.688;9.428;2023-03-12T04:22:44;9.87;;;8.77;;
1509;SDS011;746;48.688;9.428;2023-03-12T04:25:06;11.67;;;8.93;;
1509;SDS011;746;48.688;9.428;2023-03-12T04:27:28;9.63;;;8.63;;
1509;SDS011;746;48.688;9.428;2023-03-12T04:29:50;11.57;;;9.03;;
1509;SDS011;746;48.688;9.428;2023-03-12T04:32:11;9.40;;;8.50;;
1509;SDS011;746;48.688;9.428;2023-03-12T04:34:33;11.27;;;8.90;;
1509;SDS011;746;48.688;9.428;2023-03-12T04:36:54;9.97;;;8.97;;
1509;SDS011;746;48.688;9.428;2023-03-12T04:39:17;11.63;;;8.90;;
1509;SDS011;746;48.688;9.428;2023-03-12T04:41:39;10.03;;;8.70;;
1509;SDS011;746;48.688;9.428;2023-03-12T04:44:01;10.97;;;9.00;;
1509;SDS011;746;48.688;9.428;2023-03-12T04:46:22;12.23;;;9.23;;
1509;SDS011;746;48.688;9.428;2023-03-12T04:48:43;11.17;;;8.83;;
1509;SDS011;746;48.688;9.428;2023-03-12T04:51:06;10.50;;;9.30;;
1509;SDS011;746;48.688;9.428;2023-03-12T04:53:27;10.10;;;9.00;;
1509;SDS011;746;48.688;9.428;2023-03-12T04:55:51;12.03;;;9.27;;
1509;SDS011;746;48.688;9.428;2023-03-12T04:58:12;9.67;;;8.67;;
1509;SDS011;746;48.688;9.428;2023-03-12T05:00:34;9.63;;;7.67;;
1509;SDS011;746;48.688;9.428;2023-03-12T05:02:55;9.80;;;8.30;;
1509;SDS011;746;48.688;9.428;2023-03-12T05:05:16;9.33;;;7.80;;
1509;SDS011;746;48.688;9.428;2023-03-12T05:07:38;10.13;;;9.00;;
1509;SDS011;746;48.688;9.428;2023-03-12T05:10:00;9.77;;;7.90;;
1509;SDS011;746;48.688;9.428;2023-03-12T05:12:22;11.00;;;8.67;;
1509;SDS011;746;48.688;9.428;2023-03-12T05:14:45;9.77;;;8.70;;
1509;SDS011;746;48.688;9.428;2023-03-12T05:17:06;10.43;;;8.23;;
1509;SDS011;746;48.688;9.428;2023-03-12T05:19:27;9.27;;;7.77;;
1509;SDS011;746;48.688;9.428;2023-03-12T05:21:49;8.37;;;7.00;;
1509;SDS011;746;48.688;9.428;2023-03-12T05:24:11;8.47;;;7.40;;
1509;SDS011;746;48.688;9.428;2023-03-12T05:26:32;9.73;;;7.80;;
1509;SDS011;746;48.688;9.428;2023-03-12T05:28:56;7.70;;;6.97;;
1509;SDS011;746;48.688;9.428;2023-03-12T05:31:17;9.20;;;8.30;;
1509;SDS011;746;48.688;9.428;2023-03-12T05:33:39;8.43;;;7.53;;
1509;SDS011;746;48.688;9.428;2023-03-12T05:36:00;9.63;;;7.80;;
1509;SDS011;746;48.688;9.428;2023-03-12T05:38:22;10.60;;;8.27;;
1509;SDS011;746;48.688;9.428;2023-03-12T05:40:49;9.33;;;8.03;;
1509;SDS011;746;48.688;9.428;2023-03-12T05:43:10;9.83;;;8.37;;
1509;SDS011;746;48.688;9.428;2023-03-12T05:45:33;10.17;;;8.23;;
1509;SDS011;746;48.688;9.428;2023-03-12T05:47:55;9.10;;;8.20;;
1509;SDS011;746;48.688;9.428;2023-03-12T05:50:17;13.03;;;8.53;;
1509;SDS011;746;48.688;9.428;2023-03-12T05:52:38;10.70;;;9.50;;
1509;SDS011;746;48.688;9.428;2023-03-12T05:54:59;9.40;;;8.43;;
1509;SDS011;746;48.688;9.428;2023-03-12T05:57:21;8.40;;;7.50;;
1509;SDS011;746;48.688;9.428;2023-03-12T05:59:42;12.40;;;8.60;;
1509;SDS011;746;48.688;9.428;2023-03-12T06:02:06;9.57;;;8.03;;
1509;SDS011;746;48.688;9.428;2023-03-12T06:04:27;9.10;;;7.07;;
1509;SDS011;746;48.688;9.428;2023-03-12T06:06:48;7.13;;;6.40;;
1509;SDS011;746;48.688;9.428;2023-03-12T06:09:10;9.13;;;7.17;;
1509;SDS011;746;48.688;9.428;2023-03-12T06:11:32;7.40;;;6.67;;
1509;SDS011;746;48.688;9.428;2023-03-12T06:13:54;8.27;;;6.80;;
1509;SDS011;746;48.688;9.428;2023-03-12T06:16:16;10.80;;;6.80;;
1509;SDS011;746;48.688;9.428;2023-03-12T06:18:39;10.53;;;7.03;;
1509;SDS011;746;48.688;9.428;2023-03-12T06:21:08;8.40;;;6.87;;
1509;SDS011;746;48.688;9.428;2023-03-12T06:23:29;9.23;;;7.20;;
1509;SDS011;746;48.688;9.428;2023-03-12T06:25:50;8.67;;;7.30;;
1509;SDS011;746;48.688;9.428;2023-03-12T06:28:11;8.03;;;7.13;;
1509;SDS011;746;48.688;9.428;2023-03-12T06:30:33;7.77;;;6.93;;
1509;SDS011;746;48.688;9.428;2023-03-12T06:32:54;10.60;;;7.80;;
1509;SDS011;746;48.688;9.428;2023-03-12T06:35:17;8.00;;;6.90;;
1509;SDS011;746;48.688;9.428;2023-03-12T06:37:39;8.33;;;7.40;;
1509;SDS011;746;48.688;9.428;2023-03-12T06:40:01;8.90;;;7.03;;
1509;SDS011;746;48.688;9.428;2023-03-12T06:42:26;10.60;;;8.40;;
1509;SDS011;746;48.688;9.428;2023-03-12T06:44:47;8.80;;;7.70;;
1509;SDS011;746;48.688;9.428;2023-03-12T06:47:08;7.67;;;6.80;;
1509;SDS011;746;48.688;9.428;2023-03-12T06:49:30;7.97;;;6.73;;
1509;SDS011;746;48.688;9.428;2023-03-12T06:51:53;7.57;;;6.73;;
1509;SDS011;746;48.688;9.428;2023-03-12T06:54:16;8.33;;;6.77;;
1509;SDS011;746;48.688;9.428;2023-03-12T06:56:38;9.07;;;7.93;;
1509;SDS011;746;48.688;9.428;2023-03-12T06:58:59;14.20;;;11.93;;
1509;SDS011;746;48.688;9.428;2023-03-12T07:01:21;10.77;;;9.37;;
1509;SDS011;746;48.688;9.428;2023-03-12T07:03:42;9.70;;;8.30;;
1509;SDS011;746;48.688;9.428;2023-03-12T07:06:04;10.77;;;8.83;;
1509;SDS011;746;48.688;9.428;2023-03-12T07:08:33;8.73;;;7.77;;
1509;SDS011;746;48.688;9.428;2023-03-12T07:10:54;9.97;;;7.93;;
1509;SDS011;746;48.688;9.428;2023-03-12T07:13:17;9.97;;;7.53;;
1509;SDS011;746;48.688;9.428;2023-03-12T07:15:39;9.07;;;8.13;;
1509;SDS011;746;48.688;9.428;2023-03-12T07:18:02;9.00;;;8.10;;
1509;SDS011;746;48.688;9.428;2023-03-12T07:20:24;9.50;;;8.60;;
1509;SDS011;746;48.688;9.428;2023-03-12T07:22:45;9.47;;;8.50;;
1509;SDS011;746;48.688;9.428;2023-03-12T07:25:08;10.53;;;8.20;;
1509;SDS011;746;48.688;9.428;2023-03-12T07:27:31;11.53;;;10.33;;
1509;SDS011;746;48.688;9.428;2023-03-12T07:29:52;14.67;;;12.33;;
1509;SDS011;746;48.688;9.428;2023-03-12T07:32:14;16.83;;;12.60;;
1509;SDS011;746;48.688;9.428;2023-03-12T07:34:36;13.53;;;11.07;;
1509;SDS011;746;48.688;9.428;2023-03-12T07:36:57;13.10;;;9.97;;
1509;SDS011;746;48.688;9.428;2023-03-12T07:39:19;10.17;;;8.87;;
1509;SDS011;746;48.688;9.428;2023-03-12T07:41:42;10.50;;;8.53;;
1509;SDS011;746;48.688;9.428;2023-03-12T07:44:04;9.17;;;8.13;;
1509;SDS011;746;48.688;9.428;2023-03-12T07:46:26;9.23;;;8.23;;
1509;SDS011;746;48.688;9.428;2023-03-12T07:48:47;9.23;;;8.33;;
1509;SDS011;746;48.688;9.428;2023-03-12T07:51:08;13.90;;;9.30;;
1509;SDS011;746;48.688;9.428;2023-03-12T07:53:30;9.60;;;8.60;;
1509;SDS011;746;48.688;9.428;2023-03-12T07:55:51;10.30;;;8.90;;
1509;SDS011;746;48.688;9.428;2023-03-12T07:58:15;9.37;;;8.47;;
1509;SDS011;746;48.688;9.428;2023-03-12T08:00:37;10.50;;;8.73;;
1509;SDS011;746;48.688;9.428;2023-03-12T08:02:59;8.73;;;7.70;;
1509;SDS011;746;48.688;9.428;2023-03-12T08:05:21;10.27;;;8.23;;
1509;SDS011;746;48.688;9.428;2023-03-12T08:07:44;8.93;;;8.13;;
1509;SDS011;746;48.688;9.428;2023-03-12T08:10:06;9.50;;;8.60;;
1509;SDS011;746;48.688;9.428;2023-03-12T08:12:27;9.53;;;8.33;;
1509;SDS011;746;48.688;9.428;2023-03-12T08:14:51;9.23;;;8.33;;
1509;SDS011;746;48.688;9.428;2023-03-12T08:17:12;9.17;;;8.10;;
1509;SDS011;746;48.688;9.428;2023-03-12T08:19:33;9.27;;;8.20;;
1509;SDS011;746;48.688;9.428;2023-03-12T08:21:54;10.53;;;8.23;;
1509;SDS011;746;48.688;9.428;2023-03-12T08:24:16;11.60;;;9.30;;
1509;SDS011;746;48.688;9.428;2023-03-12T08:26:37;11.13;;;9.00;;
1509;SDS011;746;48.688;9.428;2023-03-12T08:28:59;10.93;;;8.67;;
1509;SDS011;746;48.688;9.428;2023-03-12T08:31:21;10.50;;;8.43;;
1509;SDS011;746;48.688;9.428;2023-03-12T08:33:42;9.03;;;8.13;;
1509;SDS011;746;48.688;9.428;2023-03-12T08:36:06;9.23;;;8.33;;
1509;SDS011;746;48.688;9.428;2023-03-12T08:38:28;8.67;;;7.80;;
1509;SDS011;746;48.688;9.428;2023-03-12T08:40:53;8.77;;;7.87;;
1509;SDS011;746;48.688;9.428;2023-03-12T08:43:14;9.73;;;8.73;;
1509;SDS011;746;48.688;9.428;2023-03-12T08:45:36;10.57;;;9.57;;
1509;SDS011;746;48.688;9.428;2023-03-12T08:47:58;12.87;;;11.30;;
1509;SDS011;746;48.688;9.428;2023-03-12T08:50:20;11.83;;;9.90;;
1509;SDS011;746;48.688;9.428;2023-03-12T08:52:42;10.63;;;9.53;;
1509;SDS011;746;48.688;9.428;2023-03-12T08:55:03;13.33;;;10.97;;
1509;SDS011;746;48.688;9.428;2023-03-12T08:57:25;11.00;;;9.90;;
1509;SDS011;746;48.688;9.428;2023-03-12T08:59:46;12.47;;;10.27;;
1509;SDS011;746;48.688;9.428;2023-03-12T09:02:09;11.30;;;10.03;;
1509;SDS011;746;48.688;9.428;2023-03-12T09:04:32;12.20;;;10.53;;
1509;SDS011;746;48.688;9.428;2023-03-12T09:06:53;12.60;;;10.70;;
1509;SDS011;746;48.688;9.428;2023-03-12T09:09:15;10.23;;;9.23;;
1509;SDS011;746;48.688;9.428;2023-03-12T09:11:36;11.43;;;9.87;;
1509;SDS011;746;48.688;9.428;2023-03-12T09:14:00;11.37;;;10.27;;
1509;SDS011;746;48.688;9.428;2023-03-12T09:16:42;12.83;;;9.90;;
1509;SDS011;746;48.688;9.428;2023-03-12T09:19:03;11.23;;;10.13;;
1509;SDS011;746;48.688;9.428;2023-03-12T09:21:26;11.33;;;10.03;;
1509;SDS011;746;48.688;9.428;2023-03-12T09:23:47;11.10;;;10.00;;
1509;SDS011;746;48.688;9.428;2023-03-12T09:26:09;14.27;;;12.77;;
1509;SDS011;746;48.688;9.428;2023-03-12T09:28:30;11.33;;;10.20;;
1509;SDS011;746;48.688;9.428;2023-03-12T09:30:51;11.47;;;9.70;;
1509;SDS011;746;48.688;9.428;2023-03-12T09:33:13;10.27;;;9.30;;
1509;SDS011;746;48.688;9.428;2023-03-12T09:35:35;11.87;;;10.30;;
1509;SDS011;746;48.688;9.428;2023-03-12T09:37:58;14.30;;;11.63;;
1509;SDS011;746;48.688;9.428;2023-03-12T09:40:19;12.47;;;10.93;;
1509;SDS011;746;48.688;9.428;2023-03-12T09:42:42;12.83;;;11.53;;
1509;SDS011;746;48.688;9.428;2023-03-12T09:45:06;13.10;;;10.67;;
1509;SDS011;746;48.688;9.428;2023-03-12T09:47:29;12.63;;;11.37;;
1509;SDS011;746;48.688;9.428;2023-03-12T09:49:52;12.83;;;11.13;;
1509;SDS011;746;48.688;9.428;2023-03-12T09:52:17;11.87;;;10.70;;
1509;SDS011;746;48.688;9.428;2023-03-12T09:54:42;15.63;;;11.73;;
1509;SDS011;746;48.688;9.428;2023-03-12T09:57:08;14.23;;;11.70;;
1509;SDS011;746;48.688;9.428;2023-03-12T09:59:30;13.67;;;12.27;;
1509;SDS011;746;48.688;9.428;2023-03-12T10:01:52;12.93;;;11.57;;
1509;SDS011;746;48.688;9.428;2023-03-12T10:04:17;13.30;;;11.87;;
1509;SDS011;746;48.688;9.428;2023-03-12T10:06:41;11.07;;;9.87;;
1509;SDS011;746;48.688;9.428;2023-03-12T10:09:11;12.87;;;10.83;;
1509;SDS011;746;48.688;9.428;2023-03-12T10:11:40;12.50;;;11.20;;
1509;SDS011;746;48.688;9.428;2023-03-12T10:14:10;12.23;;;10.07;;
1509;SDS011;746;48.688;9.428;2023-03-12T10:16:47;14.33;;;12.00;;
1509;SDS011;746;48.688;9.428;2023-03-12T10:19:22;13.57;;;11.87;;
1509;SDS011;746;48.688;9.428;2023-03-12T10:21:48;15.73;;;11.53;;
1509;SDS011;746;48.688;9.428;2023-03-12T10:24:29;13.67;;;11.67;;
1509;SDS011;746;48.688;9.428;2023-03-12T10:26:56;12.67;;;11.37;;
1509;SDS011;746;48.688;9.428;2023-03-12T10:29:19;12.10;;;10.80;;
1509;SDS011;746;48.688;9.428;2023-03-12T10:31:45;12.30;;;11.00;;
1509;SDS011;746;48.688;9.428;2023-03-12T10:34:11;11.27;;;9.97;;
1509;SDS011;746;48.688;9.428;2023-03-12T10:36:35;11.00;;;9.90;;
1509;SDS011;746;48.688;9.428;2023-03-12T10:38:57;10.60;;;9.50;;
1509;SDS011;746;48.688;9.428;2023-03-12T10:41:19;11.50;;;9.60;;
1509;SDS011;746;48.688;9.428;2023-03-12T10:43:42;10.53;;;9.33;;
1509;SDS011;746;48.688;9.428;2023-03-12T10:46:06;10.13;;;9.03;;
1509;SDS011;746;48.688;9.428;2023-03-12T10:48:30;10.90;;;9.70;;
1509;SDS011;746;48.688;9.428;2023-03-12T10:51:01;10.27;;;9.27;;
1509;SDS011;746;48.688;9.428;2023-03-12T10:53:26;12.73;;;9.93;;
1509;SDS011;746;48.688;9.428;2023-03-12T10:55:59;11.03;;;9.87;;
1509;SDS011;746;48.688;9.428;2023-03-12T10:58:21;10.33;;;9.17;;
1509;SDS011;746;48.688;9.428;2023-03-12T11:00:44;9.60;;;8.70;;
1509;SDS011;746;48.688;9.428;2023-03-12T11:03:18;10.83;;;9.50;;
1509;SDS011;746;48.688;9.428;2023-03-12T11:05:44;12.23;;;10.67;;
1509;SDS011;746;48.688;9.428;2023-03-12T11:08:11;11.27;;;10.07;;
1509;SDS011;746;48.688;9.428;2023-03-12T11:10:42;11.50;;;10.30;;
1509;SDS011;746;48.688;9.428;2023-03-12T11:13:05;10.40;;;9.40;;
1509;SDS011;746;48.688;9.428;2023-03-12T11:15:30;10.80;;;9.70;;
1509;SDS011;746;48.688;9.428;2023-03-12T11:18:20;11.43;;;10.23;;
1509;SDS011;746;48.688;9.428;2023-03-12T11:20:44;10.60;;;9.50;;
1509;SDS011;746;48.688;9.428;2023-03-12T11:23:12;12.77;;;9.57;;
1509;SDS011;746;48.688;9.428;2023-03-12T11:25:33;11.93;;;9.67;;
1509;SDS011;746;48.688;9.428;2023-03-12T11:27:54;11.30;;;10.07;;
1509;SDS011;746;48.688;9.428;2023-03-12T11:30:18;12.53;;;11.23;;
1509;SDS011;746;48.688;9.428;2023-03-12T11:32:42;12.33;;;9.40;;
1509;SDS011;746;48.688;9.428;2023-03-12T11:35:09;13.33;;;10.00;;
1509;SDS011;746;48.688;9.428;2023-03-12T11:37:35;11.33;;;9.07;;
1509;SDS011;746;48.688;9.428;2023-03-12T11:40:04;9.40;;;8.50;;
1509;SDS011;746;48.688;9.428;2023-03-12T11:42:33;11.17;;;8.57;;
1509;SDS011;746;48.688;9.428;2023-03-12T11:44:58;9.60;;;8.50;;
1509;SDS011;746;48.688;9.428;2023-03-12T11:47:36;11.27;;;8.70;;
1509;SDS011;746;48.688;9.428;2023-03-12T11:50:02;9.20;;;8.23;;
1509;SDS011;746;48.688;9.428;2023-03-12T11:52:29;8.23;;;7.43;;
1509;SDS011;746;48.688;9.428;2023-03-12T11:57:33;7.67;;;5.67;;
1509;SDS011;746;48.688;9.428;2023-03-12T11:59:58;5.57;;;4.63;;
1509;SDS011;746;48.688;9.428;2023-03-12T12:02:30;6.40;;;5.80;;
1509;SDS011;746;48.688;9.428;2023-03-12T12:05:07;5.50;;;5.00;;
1509;SDS011;746;48.688;9.428;2023-03-12T12:07:38;5.30;;;4.80;;
1509;SDS011;746;48.688;9.428;2023-03-12T12:10:06;5.67;;;5.10;;
1509;SDS011;746;48.688;9.428;2023-03-12T12:12:35;3.40;;;2.63;;
1509;SDS011;746;48.688;9.428;2023-03-12T12:15:03;2.90;;;2.70;;
1509;SDS011;746;48.688;9.428;2023-03-12T12:17:37;3.37;;;2.27;;
1509;SDS011;746;48.688;9.428;2023-03-12T12:20:15;1.30;;;1.30;;
1509;SDS011;746;48.688;9.428;2023-03-12T12:22:41;1.60;;;1.20;;
1509;SDS011;746;48.688;9.428;2023-03-12T12:25:19;1.40;;;1.23;;
1509;SDS011;746;48.688;9.428;2023-03-12T12:27:43;3.30;;;2.20;;
1509;SDS011;746;48.688;9.428;2023-03-12T12:30:13;2.90;;;1.53;;
1509;SDS011;746;48.688;9.428;2023-03-12T12:32:53;1.90;;;1.53;;
1509;SDS011;746;48.688;9.428;2023-03-12T12:35:24;2.73;;;1.60;;
1509;SDS011;746;48.688;9.428;2023-03-12T12:37:49;2.00;;;1.73;;
1509;SDS011;746;48.688;9.428;2023-03-12T12:40:15;2.77;;;2.00;;
1509;SDS011;746;48.688;9.428;2023-03-12T12:42:40;2.10;;;1.83;;
1509;SDS011;746;48.688;9.428;2023-03-12T12:45:04;3.10;;;2.10;;
1509;SDS011;746;48.688;9.428;2023-03-12T12:47:29;2.93;;;2.03;;
1509;SDS011;746;48.688;9.428;2023-03-12T12:49:53;1.93;;;1.70;;
1509;SDS011;746;48.688;9.428;2023-03-12T12:52:16;3.03;;;1.90;;
1509;SDS011;746;48.688;9.428;2023-03-12T12:54:43;3.27;;;2.40;;
1509;SDS011;746;48.688;9.428;2023-03-12T12:57:09;3.43;;;2.03;;
1509;SDS011;746;48.688;9.428;2023-03-12T12:59:32;5.10;;;1.77;;
1509;SDS011;746;48.688;9.428;2023-03-12T13:01:56;1.87;;;1.60;;
1509;SDS011;746;48.688;9.428;2023-03-12T13:04:21;3.07;;;1.43;;
1509;SDS011;746;48.688;9.428;2023-03-12T13:06:57;2.70;;;1.60;;
1509;SDS011;746;48.688;9.428;2023-03-12T13:09:20;3.77;;;1.90;;
1509;SDS011;746;48.688;9.428;2023-03-12T13:11:44;3.27;;;1.77;;
1509;SDS011;746;48.688;9.428;2023-03-12T13:14:11;3.93;;;2.40;;
1509;SDS011;746;48.688;9.428;2023-03-12T13:16:34;3.50;;;2.37;;
1509;SDS011;746;48.688;9.428;2023-03-12T13:18:56;3.27;;;1.90;;
1509;SDS011;746;48.688;9.428;2023-03-12T13:21:18;3.93;;;1.97;;
1509;SDS011;746;48.688;9.428;2023-03-12T13:23:47;3.00;;;1.70;;
1509;SDS011;746;48.688;9.428;2023-03-12T13:26:14;6.40;;;3.37;;
1509;SDS011;746;48.688;9.428;2023-03-12T13:31:34;4.83;;;2.80;;
1509;SDS011;746;48.688;9.428;2023-03-12T13:33:56;8.40;;;4.27;;
1509;SDS011;746;48.688;9.428;2023-03-12T13:36:20;6.70;;;4.03;;
1509;SDS011;746;48.688;9.428;2023-03-12T13:38:51;3.93;;;2.37;;
1509;SDS011;746;48.688;9.428;2023-03-12T13:41:13;4.43;;;2.40;;
1509;SDS011;746;48.688;9.428;2023-03-12T13:43:51;2.60;;;1.60;;
1509;SDS011;746;48.688;9.428;2023-03-12T13:46:21;3.97;;;1.80;;
1509;SDS011;746;48.688;9.428;2023-03-12T13:48:47;4.53;;;2.20;;
1509;SDS011;746;48.688;9.428;2023-03-12T13:51:09;3.10;;;1.50;;
1509;SDS011;746;48.688;9.428;2023-03-12T13:53:32;4.13;;;1.90;;
1509;SDS011;746;48.688;9.428;2023-03-12T13:55:59;3.23;;;1.63;;
1509;SDS011;746;48.688;9.428;2023-03-12T13:58:21;4.30;;;2.60;;
1509;SDS011;746;48.688;9.428;2023-03-12T14:00:43;4.77;;;2.17;;
1509;SDS011;746;48.688;9.428;2023-03-12T14:03:10;3.70;;;2.73;;
1509;SDS011;746;48.688;9.428;2023-03-12T14:05:34;4.30;;;3.03;;
1509;SDS011;746;48.688;9.428;2023-03-12T14:08:09;3.77;;;2.90;;
1509;SDS011;746;48.688;9.428;2023-03-12T14:10:33;1.57;;;1.47;;
1509;SDS011;746;48.688;9.428;2023-03-12T14:12:59;1.80;;;1.70;;
1509;SDS011;746;48.688;9.428;2023-03-12T14:15:25;1.83;;;1.47;;
1509;SDS011;746;48.688;9.428;2023-03-12T14:17:52;2.80;;;2.00;;
1509;SDS011;746;48.688;9.428;2023-03-12T14:20:15;2.70;;;1.50;;
1509;SDS011;746;48.688;9.428;2023-03-12T14:22:38;3.90;;;1.83;;
1509;SDS011;746;48.688;9.428;2023-03-12T14:25:03;3.60;;;1.63;;
1509;SDS011;746;48.688;9.428;2023-03-12T14:27:25;2.50;;;1.47;;
1509;SDS011;746;48.688;9.428;2023-03-12T14:29:48;1.73;;;1.50;;
1509;SDS011;746;48.688;9.428;2023-03-12T14:32:12;4.30;;;1.67;;
1509;SDS011;746;48.688;9.428;2023-03-12T14:34:37;3.60;;;1.97;;
1509;SDS011;746;48.688;9.428;2023-03-12T14:37:01;1.63;;;1.53;;
1509;SDS011;746;48.688;9.428;2023-03-12T14:39:27;4.67;;;1.73;;
1509;SDS011;746;48.688;9.428;2023-03-12T14:41:51;2.03;;;1.50;;
1509;SDS011;746;48.688;9.428;2023-03-12T14:44:19;2.63;;;1.50;;
1509;SDS011;746;48.688;9.428;2023-03-12T14:46:44;2.57;;;1.80;;
1509;SDS011;746;48.688;9.428;2023-03-12T14:49:07;2.13;;;1.77;;
1509;SDS011;746;48.688;9.428;2023-03-12T14:51:29;3.37;;;1.57;;
1509;SDS011;746;48.688;9.428;2023-03-12T14:53:55;4.23;;;1.60;;
1509;SDS011;746;48.688;9.428;2023-03-12T14:56:24;5.53;;;2.00;;
1509;SDS011;746;48.688;9.428;2023-03-12T14:58:48;2.70;;;1.40;;
1509;SDS011;746;48.688;9.428;2023-03-12T15:01:11;2.80;;;1.63;;
1509;SDS011;746;48.688;9.428;2023-03-12T15:03:35;3.57;;;1.80;;
1509;SDS011;746;48.688;9.428;2023-03-12T15:06:00;3.63;;;1.73;;